Time;durP1;ratioP1;P1;durP2;ratioP2;P2;SDS_P1;SDS_P2;PMS_P1;PMS_P2;Temp;Humidity;BMP_temperature;BMP_pressure;BME280_temperature;BME280_humidity;BME280_pressure;Samples;Min_cycle;Max_cycle;Signal;HPM_P1;HPM_P2
2022/12/08 00:03:04;;;;;;;8.43;5.20;;;;;;;-145.68;100.00;63218.00;10417054;28;20257;-79
2022/12/08 00:13:23;;;;;;;12.53;5.10;;;;;;;-145.68;100.00;63218.00;10436111;28;20195;-79
2022/12/08 00:18:24;;;;;;;11.27;5.30;;;;;;;-145.68;100.00;63218.00;10451335;28;20588;-80
2022/12/08 00:23:24;;;;;;;7.70;5.13;;;;;;;-145.68;100.00;63218.00;10439598;28;20191;-79
2022/12/08 00:28:25;;;;;;;8.43;5.47;;;;;;;-145.68;100.00;63218.00;10459560;28;20263;-80
2022/12/08 00:33:27;;;;;;;15.87;5.93;;;;;;;-145.68;100.00;63218.00;10459063;28;20195;-80
2022/12/08 00:38:27;;;;;;;11.20;5.20;;;;;;;-145.68;100.00;63218.00;10458817;28;20250;-81
2022/12/08 00:43:27;;;;;;;9.53;5.13;;;;;;;-145.68;100.00;63218.00;10458746;28;20198;-79
2022/12/08 00:48:28;;;;;;;8.50;5.50;;;;;;;-145.68;100.00;63218.00;10458086;28;20660;-80
2022/12/08 00:53:29;;;;;;;10.37;5.63;;;;;;;-145.68;100.00;63218.00;10458290;28;20184;-80
2022/12/08 00:58:30;;;;;;;8.23;5.50;;;;;;;-145.68;100.00;63218.00;10457936;28;20199;-79
2022/12/08 01:03:30;;;;;;;7.13;4.13;;;;;;;-145.68;100.00;63218.00;10457748;28;20554;-80
2022/12/08 01:08:30;;;;;;;8.33;5.47;;;;;;;-145.68;100.00;63218.00;10458173;28;20211;-79
2022/12/08 01:13:31;;;;;;;10.57;5.97;;;;;;;-145.68;100.00;63218.00;10457458;28;20203;-79
2022/12/08 01:18:32;;;;;;;9.27;5.53;;;;;;;-145.68;100.00;63218.00;10457124;28;20327;-81
2022/12/08 01:23:33;;;;;;;11.07;5.20;;;;;;;-145.68;100.00;63218.00;10456992;28;20195;-80
2022/12/08 01:28:34;;;;;;;10.43;6.30;;;;;;;-145.68;100.00;63218.00;10439446;28;20751;-81
2022/12/08 01:33:34;;;;;;;15.03;5.50;;;;;;;-145.68;100.00;63218.00;10456143;28;20190;-80
2022/12/08 01:38:34;;;;;;;9.53;4.80;;;;;;;-145.68;100.00;63218.00;10456652;28;20216;-79
2022/12/08 01:43:53;;;;;;;8.07;5.30;;;;;;;-145.68;100.00;63218.00;10456658;28;20195;-80
2022/12/08 01:49:02;;;;;;;10.10;5.20;;;;;;;-145.68;100.00;63218.00;10455706;28;20875;-80
2022/12/08 01:54:04;;;;;;;11.03;6.03;;;;;;;-145.68;100.00;63218.00;10438960;28;20188;-80
2022/12/08 01:59:05;;;;;;;7.30;6.13;;;;;;;-145.68;100.00;63218.00;10437572;28;20233;-81
2022/12/08 02:04:05;;;;;;;10.23;5.07;;;;;;;-145.68;100.00;63218.00;10456223;28;20208;-81
2022/12/08 02:09:06;;;;;;;8.77;5.07;;;;;;;-145.68;100.00;63218.00;10455683;28;20687;-80
2022/12/08 02:14:07;;;;;;;5.83;4.57;;;;;;;-145.68;100.00;63218.00;10455919;28;20244;-81
2022/12/08 02:19:17;;;;;;;8.33;5.00;;;;;;;-145.68;100.00;63218.00;10437267;28;20255;-81
2022/12/08 02:24:29;;;;;;;7.90;4.73;;;;;;;-145.68;100.00;63218.00;10454912;28;20239;-80
2022/12/08 02:29:44;;;;;;;5.53;4.60;;;;;;;-145.68;100.00;63218.00;10437007;28;20232;-80
2022/12/08 02:34:56;;;;;;;10.13;5.30;;;;;;;-145.68;100.00;63218.00;10455149;28;20192;-80
2022/12/08 02:40:07;;;;;;;8.67;5.50;;;;;;;-145.68;100.00;63218.00;10436926;28;20276;-80
2022/12/08 02:45:11;;;;;;;6.67;4.97;;;;;;;-145.68;100.00;63218.00;10436301;28;20255;-81
2022/12/08 02:50:14;;;;;;;8.67;5.37;;;;;;;-145.68;100.00;63218.00;10435507;28;20729;-80
2022/12/08 02:55:17;;;;;;;9.20;5.73;;;;;;;-145.68;100.00;63218.00;10436145;28;20726;-81
2022/12/08 03:00:20;;;;;;;9.07;4.77;;;;;;;-145.68;100.00;63218.00;10454030;28;20212;-81
2022/12/08 03:05:46;;;;;;;7.90;4.63;;;;;;;-145.68;100.00;63218.00;10436276;28;20224;-79
2022/12/08 03:11:03;;;;;;;10.13;4.20;;;;;;;-145.68;100.00;63218.00;10453849;28;20248;-80
2022/12/08 03:16:05;;;;;;;9.20;4.97;;;;;;;-145.68;100.00;63218.00;10435887;28;20187;-80
2022/12/08 03:21:06;;;;;;;6.37;4.17;;;;;;;-145.68;100.00;63218.00;10433194;28;20219;-80
2022/12/08 03:26:15;;;;;;;10.43;4.90;;;;;;;-145.68;100.00;63218.00;10433462;28;20277;-80
2022/12/08 03:31:17;;;;;;;10.73;5.17;;;;;;;-145.68;100.00;63218.00;10452167;28;20197;-80
2022/12/08 03:36:18;;;;;;;8.53;4.87;;;;;;;-145.68;100.00;63218.00;10433731;28;20199;-80
2022/12/08 03:41:20;;;;;;;6.30;4.83;;;;;;;-145.68;100.00;63218.00;10433321;28;20196;-79
2022/12/08 03:46:23;;;;;;;8.43;5.70;;;;;;;-145.68;100.00;63218.00;10451448;28;20236;-79
2022/12/08 03:51:23;;;;;;;6.07;5.17;;;;;;;-145.68;100.00;63218.00;10450183;28;20204;-79
2022/12/08 03:56:27;;;;;;;8.47;5.57;;;;;;;-145.68;100.00;63218.00;10450479;28;20196;-79
2022/12/08 04:01:27;;;;;;;8.40;5.90;;;;;;;-145.68;100.00;63218.00;10449938;28;20199;-79
2022/12/08 04:06:27;;;;;;;8.90;6.47;;;;;;;-145.68;100.00;63218.00;10447264;28;20218;-80
2022/12/08 04:11:28;;;;;;;10.53;6.60;;;;;;;-145.68;100.00;63218.00;10446516;28;20192;-80
2022/12/08 04:16:28;;;;;;;10.23;6.13;;;;;;;-145.68;100.00;63218.00;10446676;28;20184;-79
2022/12/08 04:21:28;;;;;;;7.57;5.00;;;;;;;-145.68;100.00;63218.00;10447261;28;20184;-79
2022/12/08 04:26:29;;;;;;;8.20;5.70;;;;;;;-145.68;100.00;63218.00;10446394;28;20238;-80
2022/12/08 04:31:29;;;;;;;10.43;5.83;;;;;;;-145.68;100.00;63218.00;10446974;28;20203;-80
2022/12/08 04:36:30;;;;;;;7.10;5.77;;;;;;;-145.68;100.00;63218.00;10447092;28;21026;-80
2022/12/08 04:41:30;;;;;;;9.83;6.00;;;;;;;-145.68;100.00;63218.00;10446190;28;20198;-80
2022/12/08 04:46:30;;;;;;;8.73;6.10;;;;;;;-145.68;100.00;63218.00;10446842;28;20251;-80
2022/12/08 04:51:31;;;;;;;8.63;5.77;;;;;;;-145.68;100.00;63218.00;10445663;28;20204;-79
2022/12/08 04:56:31;;;;;;;8.67;5.57;;;;;;;-145.68;100.00;63218.00;10446564;28;20736;-80
2022/12/08 05:01:32;;;;;;;7.20;5.03;;;;;;;-145.68;100.00;63218.00;10447334;28;20210;-79
2022/12/08 05:06:32;;;;;;;7.57;5.23;;;;;;;-145.68;100.00;63218.00;10450482;28;20229;-79
2022/12/08 05:11:32;;;;;;;6.13;4.67;;;;;;;-145.68;100.00;63218.00;10456806;28;20196;-79
2022/12/08 05:16:33;;;;;;;4.90;3.83;;;;;;;-145.68;100.00;63218.00;10456607;28;20264;-79
2022/12/08 05:21:34;;;;;;;7.40;4.67;;;;;;;-145.68;100.00;63218.00;10456037;28;20192;-79
2022/12/08 05:26:34;;;;;;;8.43;5.43;;;;;;;-145.68;100.00;63218.00;10456882;28;20703;-79
2022/12/08 05:31:35;;;;;;;6.50;5.13;;;;;;;-145.68;100.00;63218.00;10456984;28;20216;-78
2022/12/08 05:36:35;;;;;;;7.87;5.20;;;;;;;-145.68;100.00;63218.00;10456485;28;20202;-79
2022/12/08 05:41:35;;;;;;;8.07;5.13;;;;;;;-145.68;100.00;63218.00;10456533;28;20713;-79
2022/12/08 05:46:36;;;;;;;5.80;4.77;;;;;;;-145.68;100.00;63218.00;10455716;28;20564;-79
2022/12/08 05:51:36;;;;;;;7.50;5.07;;;;;;;-145.68;100.00;63218.00;10455704;28;20300;-79
2022/12/08 05:56:36;;;;;;;6.47;4.80;;;;;;;-145.68;100.00;63218.00;10456064;28;20208;-79
2022/12/08 06:01:37;;;;;;;7.10;5.20;;;;;;;-145.68;100.00;63218.00;10455581;28;20195;-79
2022/12/08 06:06:38;;;;;;;7.90;4.43;;;;;;;-145.68;100.00;63218.00;10455561;28;20658;-78
2022/12/08 06:11:38;;;;;;;6.70;4.87;;;;;;;-145.68;100.00;63218.00;10455194;28;20195;-79
2022/12/08 06:16:39;;;;;;;6.40;4.20;;;;;;;-145.68;100.00;63218.00;10437885;28;20188;-79
2022/12/08 06:21:39;;;;;;;6.00;4.03;;;;;;;-145.68;100.00;63218.00;10436385;28;20188;-79
2022/12/08 06:26:40;;;;;;;5.10;3.77;;;;;;;-145.68;100.00;63218.00;10454885;28;20225;-79
2022/12/08 06:31:40;;;;;;;4.73;3.90;;;;;;;-145.68;100.00;63218.00;10454668;28;20195;-79
2022/12/08 06:36:41;;;;;;;4.30;3.67;;;;;;;-145.68;100.00;63218.00;10454239;28;20221;-79
2022/12/08 06:47:00;;;;;;;6.53;5.77;;;;;;;-145.68;100.00;63218.00;10454104;28;20221;-78
2022/12/08 06:52:00;;;;;;;18.47;10.77;;;;;;;-145.68;100.00;63218.00;10453427;28;20184;-78
2022/12/08 06:57:01;;;;;;;31.97;20.33;;;;;;;-145.68;100.00;63218.00;10453637;28;20196;-78
2022/12/08 07:02:02;;;;;;;28.90;16.27;;;;;;;-145.68;100.00;63218.00;10453158;28;20195;-78
2022/12/08 07:07:02;;;;;;;36.07;20.53;;;;;;;-145.68;100.00;63218.00;10451320;28;20215;-78
2022/12/08 07:12:03;;;;;;;8.63;6.77;;;;;;;-145.68;100.00;63218.00;10420550;28;20558;-78
2022/12/08 07:17:03;;;;;;;40.70;23.77;;;;;;;-145.68;100.00;63218.00;10411609;28;20188;-78
2022/12/08 07:22:04;;;;;;;20.07;12.17;;;;;;;-145.68;100.00;63218.00;10411521;28;20190;-78
2022/12/08 07:27:04;;;;;;;8.70;6.77;;;;;;;-145.68;100.00;63218.00;10410901;28;20262;-79
2022/12/08 07:32:07;;;;;;;15.80;11.67;;;;;;;-145.68;100.00;63218.00;10410115;28;20241;-79
2022/12/08 07:37:07;;;;;;;11.60;9.07;;;;;;;-145.68;100.00;63218.00;10392898;28;20274;-79
2022/12/08 07:42:07;;;;;;;8.10;7.00;;;;;;;-145.68;100.00;63218.00;10410844;28;20731;-79
2022/12/08 07:47:08;;;;;;;7.77;6.60;;;;;;;-145.68;100.00;63218.00;10410178;28;20635;-79
2022/12/08 07:52:08;;;;;;;8.97;6.40;;;;;;;-145.68;100.00;63218.00;10410273;28;20191;-79
2022/12/08 07:57:08;;;;;;;11.67;8.43;;;;;;;-145.68;100.00;63218.00;10433357;28;20195;-79
2022/12/08 08:02:16;;;;;;;13.73;8.10;;;;;;;-145.68;100.00;63218.00;10448680;28;20573;-79
2022/12/08 08:07:17;;;;;;;29.03;15.43;;;;;;;-145.68;100.00;63218.00;10449583;28;20227;-79
2022/12/08 08:12:17;;;;;;;35.57;20.07;;;;;;;-145.68;100.00;63218.00;10448608;28;20196;-79
2022/12/08 08:17:17;;;;;;;15.47;9.57;;;;;;;-145.68;100.00;63218.00;10448981;28;20596;-81
2022/12/08 08:22:18;;;;;;;28.00;15.90;;;;;;;-145.68;100.00;63218.00;10447924;28;20195;-80
2022/12/08 08:27:18;;;;;;;13.90;9.57;;;;;;;-145.68;100.00;63218.00;10404766;28;20250;-82
2022/12/08 08:32:19;;;;;;;13.03;7.20;;;;;;;-145.68;100.00;63218.00;10403074;28;20636;-82
2022/12/08 08:37:19;;;;;;;8.33;6.27;;;;;;;-145.68;100.00;63218.00;10384616;28;20219;-81
2022/12/08 08:42:20;;;;;;;9.07;6.13;;;;;;;-145.68;100.00;63218.00;10387153;28;20191;-80
2022/12/08 08:47:20;;;;;;;6.93;5.50;;;;;;;-145.68;100.00;63218.00;10409098;28;20259;-82
2022/12/08 08:52:20;;;;;;;10.17;5.93;;;;;;;-145.68;100.00;63218.00;10411524;28;20213;-81
2022/12/08 08:57:21;;;;;;;6.30;5.07;;;;;;;-145.68;100.00;63218.00;10409574;28;20196;-80
2022/12/08 09:02:21;;;;;;;7.43;5.80;;;;;;;-145.68;100.00;63218.00;10391369;28;20498;-79
2022/12/08 09:07:22;;;;;;;8.70;6.53;;;;;;;-145.68;100.00;63218.00;10395098;28;20561;-81
2022/12/08 09:12:22;;;;;;;6.60;4.40;;;;;;;-145.68;100.00;63218.00;10409163;28;20199;-82
2022/12/08 09:17:22;;;;;;;9.13;6.57;;;;;;;-145.68;100.00;63218.00;10395366;28;20188;-80
2022/12/08 09:22:23;;;;;;;8.83;5.87;;;;;;;-145.68;100.00;63218.00;10411970;28;20200;-80
2022/12/08 09:27:23;;;;;;;7.43;6.10;;;;;;;-145.68;100.00;63218.00;10412366;28;20250;-82
2022/12/08 09:32:26;;;;;;;7.63;5.90;;;;;;;-145.68;100.00;63218.00;10412662;28;20199;-84
2022/12/08 09:37:28;;;;;;;10.53;8.60;;;;;;;-145.68;100.00;63218.00;10411661;28;20589;-82
2022/12/08 09:42:52;;;;;;;14.90;9.90;;;;;;;-145.68;100.00;63218.00;10412679;28;20552;-80
2022/12/08 09:47:59;;;;;;;12.27;8.37;;;;;;;-145.68;100.00;63218.00;10411208;28;20223;-80
2022/12/08 09:53:22;;;;;;;9.50;7.13;;;;;;;-145.68;100.00;63218.00;10393092;28;20650;-80
2022/12/08 09:58:52;;;;;;;11.97;8.27;;;;;;;-145.68;100.00;63218.00;10393548;28;20188;-79
2022/12/08 10:03:56;;;;;;;12.33;8.60;;;;;;;-145.68;100.00;63218.00;10385180;28;20564;-79
2022/12/08 10:09:00;;;;;;;20.93;13.00;;;;;;;-145.68;100.00;63218.00;10381602;28;20280;-80
2022/12/08 10:14:11;;;;;;;19.20;11.13;;;;;;;-145.68;100.00;63218.00;10396359;28;20189;-80
2022/12/08 10:19:19;;;;;;;13.53;8.80;;;;;;;-145.68;100.00;63218.00;10391691;28;20581;-78
2022/12/08 10:24:25;;;;;;;10.83;7.37;;;;;;;-145.68;100.00;63218.00;10380159;28;20232;-79
2022/12/08 10:29:25;;;;;;;8.17;6.50;;;;;;;-145.68;100.00;63218.00;10432129;28;20192;-79
2022/12/08 10:34:26;;;;;;;14.37;8.30;;;;;;;-145.68;100.00;63218.00;10431759;28;20652;-80
2022/12/08 10:39:34;;;;;;;8.33;6.43;;;;;;;-145.68;100.00;63218.00;10449817;28;20203;-78
2022/12/08 10:44:54;;;;;;;8.53;5.77;;;;;;;-145.68;100.00;63218.00;10449270;28;20307;-80
2022/12/08 10:50:11;;;;;;;5.77;3.97;;;;;;;-145.68;100.00;63218.00;10438416;28;20585;-78
2022/12/08 10:55:17;;;;;;;5.17;4.10;;;;;;;-145.68;100.00;63218.00;10482740;28;20660;-79
2022/12/08 11:00:26;;;;;;;3.87;3.47;;;;;;;-145.68;100.00;63218.00;10405487;28;20195;-79
2022/12/08 11:05:30;;;;;;;3.23;2.93;;;;;;;-145.68;100.00;63218.00;10434170;28;20291;-79
2022/12/08 11:10:36;;;;;;;3.93;3.63;;;;;;;-145.68;100.00;63218.00;10411585;28;20258;-79
2022/12/08 11:15:38;;;;;;;5.40;3.87;;;;;;;-145.68;100.00;63218.00;10414460;28;20188;-79
2022/12/08 11:20:40;;;;;;;3.97;3.27;;;;;;;-145.68;100.00;63218.00;10417870;28;20199;-78
2022/12/08 11:25:41;;;;;;;5.10;4.10;;;;;;;-145.68;100.00;63218.00;10412423;28;20245;-79
2022/12/08 11:30:44;;;;;;;5.50;4.03;;;;;;;-145.68;100.00;63218.00;10390365;28;20188;-78
2022/12/08 11:35:51;;;;;;;6.60;3.20;;;;;;;-145.68;100.00;63218.00;10390716;28;20219;-79
2022/12/08 11:41:04;;;;;;;3.30;3.00;;;;;;;-145.68;100.00;63218.00;10390009;28;20213;-78
2022/12/08 11:46:11;;;;;;;9.17;7.10;;;;;;;-145.68;100.00;63218.00;10389551;28;20746;-79
2022/12/08 11:51:17;;;;;;;13.10;7.87;;;;;;;-145.68;100.00;63218.00;10389508;28;20196;-78
2022/12/08 11:56:27;;;;;;;56.10;25.63;;;;;;;-145.68;100.00;63218.00;10408235;28;20215;-79
2022/12/08 12:01:27;;;;;;;6.30;4.23;;;;;;;-145.68;100.00;63218.00;10406817;28;20193;-78
2022/12/08 12:06:58;;;;;;;86.83;19.67;;;;;;;-145.68;100.00;63218.00;10389164;28;20212;-78
2022/12/08 12:12:43;;;;;;;31.10;9.40;;;;;;;-145.68;100.00;63218.00;10389068;28;20204;-79
2022/12/08 12:17:50;;;;;;;61.43;17.63;;;;;;;-145.68;100.00;63218.00;10352552;28;21028;-80
2022/12/08 12:22:59;;;;;;;36.23;12.53;;;;;;;-145.68;100.00;63218.00;10406356;28;20279;-80
2022/12/08 12:28:04;;;;;;;10.03;3.70;;;;;;;-145.68;100.00;63218.00;10402874;28;20236;-79
2022/12/08 12:33:07;;;;;;;7.60;4.83;;;;;;;-145.68;100.00;63218.00;10406288;28;20235;-80
2022/12/08 12:43:38;;;;;;;7.50;5.30;;;;;;;-145.68;100.00;63218.00;10390644;28;20206;-81
2022/12/08 12:48:38;;;;;;;3.53;3.20;;;;;;;-145.68;100.00;63218.00;10404447;28;20224;-81
2022/12/08 12:53:39;;;;;;;5.50;2.97;;;;;;;-145.68;100.00;63218.00;10406565;28;20259;-81
2022/12/08 12:58:41;;;;;;;4.65;4.25;;;;;;;-145.68;100.00;63218.00;10392499;28;20973;-81
2022/12/08 13:03:41;;;;;;;3.73;2.80;;;;;;;-145.68;100.00;63218.00;10408124;28;20208;-79
2022/12/08 13:08:51;;;;;;;5.63;3.27;;;;;;;-145.68;100.00;63218.00;10407168;28;20250;-82
2022/12/08 13:14:02;;;;;;;3.60;2.70;;;;;;;-145.68;100.00;63218.00;10406225;28;20208;-80
2022/12/08 13:19:04;;;;;;;4.20;2.90;;;;;;;-145.68;100.00;63218.00;10406619;28;20193;-82
2022/12/08 13:24:16;;;;;;;3.77;3.03;;;;;;;-145.68;100.00;63218.00;10406275;28;20233;-81
2022/12/08 13:29:23;;;;;;;4.03;3.23;;;;;;;-145.68;100.00;63218.00;10411930;28;20551;-81
2022/12/08 13:34:33;;;;;;;4.57;3.30;;;;;;;-145.68;100.00;63218.00;10400753;28;20204;-83
2022/12/08 13:39:46;;;;;;;7.70;3.63;;;;;;;-145.68;100.00;63218.00;10381513;28;20223;-82
2022/12/08 13:45:13;;;;;;;5.83;4.80;;;;;;;-145.68;100.00;63218.00;10377315;28;20254;-79
2022/12/08 13:50:17;;;;;;;6.03;5.43;;;;;;;-145.68;100.00;63218.00;10414143;28;20236;-79
2022/12/08 13:55:39;;;;;;;14.60;10.07;;;;;;;-145.68;100.00;63218.00;10393689;28;20188;-81
2022/12/08 14:00:39;;;;;;;19.43;10.93;;;;;;;-145.68;100.00;63218.00;10412505;28;20577;-80
2022/12/08 14:05:41;;;;;;;4.20;3.80;;;;;;;-145.68;100.00;63218.00;10412255;28;20211;-80
2022/12/08 14:10:42;;;;;;;5.70;3.60;;;;;;;-145.68;100.00;63218.00;10394663;28;20383;-81
2022/12/08 14:15:43;;;;;;;7.47;4.33;;;;;;;-145.68;100.00;63218.00;10394889;28;20206;-80
2022/12/08 14:20:43;;;;;;;13.70;6.83;;;;;;;-145.68;100.00;63218.00;10393906;28;20188;-80
2022/12/08 14:25:46;;;;;;;9.67;5.23;;;;;;;-145.68;100.00;63218.00;10412133;28;20239;-80
2022/12/08 14:30:47;;;;;;;5.80;4.43;;;;;;;-145.68;100.00;63218.00;10394296;28;20191;-80
2022/12/08 14:35:53;;;;;;;8.17;6.30;;;;;;;-145.68;100.00;63218.00;10397954;28;20184;-81
2022/12/08 14:41:04;;;;;;;26.40;13.63;;;;;;;-145.68;100.00;63218.00;10372178;28;20323;-80
2022/12/08 14:46:19;;;;;;;19.53;11.20;;;;;;;-145.68;100.00;63218.00;10402077;28;20279;-81
2022/12/08 14:51:22;;;;;;;19.03;10.57;;;;;;;-145.68;100.00;63218.00;10410721;28;20200;-81
2022/12/08 14:56:35;;;;;;;10.63;6.23;;;;;;;-145.68;100.00;63218.00;10410427;28;20197;-81
2022/12/08 15:01:35;;;;;;;25.10;13.70;;;;;;;-145.68;100.00;63218.00;10397662;28;20239;-80
2022/12/08 15:06:36;;;;;;;37.87;18.53;;;;;;;-145.68;100.00;63218.00;10365468;28;20273;-81
2022/12/08 15:11:36;;;;;;;58.43;24.43;;;;;;;-145.68;100.00;63218.00;10404536;28;20187;-80
2022/12/08 15:16:42;;;;;;;64.83;21.90;;;;;;;-145.68;100.00;63218.00;10410183;28;20235;-80
2022/12/08 15:21:43;;;;;;;20.20;10.13;;;;;;;-145.68;100.00;63218.00;10390071;28;20400;-80
2022/12/08 15:26:46;;;;;;;20.53;9.97;;;;;;;-145.68;100.00;63218.00;10392938;28;20243;-80
2022/12/08 15:31:48;;;;;;;27.60;12.87;;;;;;;-145.68;100.00;63218.00;10402054;28;20212;-79
2022/12/08 15:36:49;;;;;;;6.43;4.47;;;;;;;-145.68;100.00;63218.00;10402822;28;20204;-80
2022/12/08 15:41:50;;;;;;;27.03;14.43;;;;;;;-145.68;100.00;63218.00;10395784;28;20193;-81
2022/12/08 15:46:51;;;;;;;5.93;4.27;;;;;;;-145.68;100.00;63218.00;10349461;28;20220;-80
2022/12/08 15:51:52;;;;;;;5.10;3.57;;;;;;;-145.68;100.00;63218.00;10366918;28;20189;-80
2022/12/08 15:56:54;;;;;;;6.17;4.57;;;;;;;-145.68;100.00;63218.00;10392880;28;20196;-80
2022/12/08 16:01:55;;;;;;;5.17;3.67;;;;;;;-145.68;100.00;63218.00;10408063;28;20691;-79
2022/12/08 16:06:55;;;;;;;4.43;2.60;;;;;;;-145.68;100.00;63218.00;10408417;28;20241;-80
2022/12/08 16:17:16;;;;;;;5.07;3.77;;;;;;;-145.68;100.00;63218.00;10407600;28;20184;-79
2022/12/08 16:22:19;;;;;;;6.70;4.20;;;;;;;-145.68;100.00;63218.00;10404396;28;20196;-81
2022/12/08 16:27:22;;;;;;;5.67;3.90;;;;;;;-145.68;100.00;63218.00;10439292;28;20243;-79
2022/12/08 16:32:23;;;;;;;4.67;3.80;;;;;;;-145.68;100.00;63218.00;10447976;28;20223;-80
2022/12/08 16:37:25;;;;;;;7.50;4.73;;;;;;;-145.68;100.00;63218.00;10449426;28;20242;-79
2022/12/08 16:42:42;;;;;;;3.60;3.17;;;;;;;-145.68;100.00;63218.00;10447765;28;20245;-79
2022/12/08 16:47:47;;;;;;;10.90;5.70;;;;;;;-145.68;100.00;63218.00;10447962;28;20536;-79
2022/12/08 16:52:48;;;;;;;6.00;3.90;;;;;;;-145.68;100.00;63218.00;10448346;28;20195;-79
2022/12/08 16:57:48;;;;;;;6.77;4.33;;;;;;;-145.68;100.00;63218.00;10432030;28;20194;-79
2022/12/08 17:02:49;;;;;;;6.67;3.83;;;;;;;-145.68;100.00;63218.00;10431625;28;20211;-79
2022/12/08 17:07:50;;;;;;;5.23;3.93;;;;;;;-145.68;100.00;63218.00;10456864;28;20252;-79
2022/12/08 17:12:51;;;;;;;4.73;4.23;;;;;;;-145.68;100.00;63218.00;10455473;28;20641;-79
2022/12/08 17:17:52;;;;;;;5.27;4.30;;;;;;;-145.68;100.00;63218.00;10455666;28;20179;-79
2022/12/08 17:22:54;;;;;;;8.77;6.60;;;;;;;-145.68;100.00;63218.00;10455969;28;20222;-80
2022/12/08 17:27:55;;;;;;;5.93;4.53;;;;;;;-145.68;100.00;63218.00;10436689;28;20255;-80
2022/12/08 17:32:55;;;;;;;7.93;6.00;;;;;;;-145.68;100.00;63218.00;10436542;28;20531;-80
2022/12/08 17:37:55;;;;;;;8.17;6.10;;;;;;;-145.68;100.00;63218.00;10445158;28;20210;-80
2022/12/08 17:42:56;;;;;;;6.97;4.70;;;;;;;-145.68;100.00;63218.00;10415455;28;20198;-79
2022/12/08 17:47:56;;;;;;;15.13;8.40;;;;;;;-145.68;100.00;63218.00;10417360;28;20231;-80
2022/12/08 17:52:57;;;;;;;7.63;5.00;;;;;;;-145.68;100.00;63218.00;10415516;28;20187;-80
2022/12/08 17:57:57;;;;;;;6.80;4.97;;;;;;;-145.68;100.00;63218.00;10396137;28;20195;-80
2022/12/08 18:02:58;;;;;;;13.97;7.83;;;;;;;-145.68;100.00;63218.00;10414437;28;20199;-80
2022/12/08 18:07:59;;;;;;;8.07;6.07;;;;;;;-145.68;100.00;63218.00;10408783;28;20248;-80
2022/12/08 18:12:59;;;;;;;6.27;4.93;;;;;;;-145.68;100.00;63218.00;10443220;28;20326;-80
2022/12/08 18:17:59;;;;;;;12.63;7.70;;;;;;;-145.68;100.00;63218.00;10451906;28;20209;-80
2022/12/08 18:23:00;;;;;;;16.80;8.90;;;;;;;-145.68;100.00;63218.00;10444377;28;20258;-80
2022/12/08 18:28:00;;;;;;;13.37;7.10;;;;;;;-145.68;100.00;63218.00;10411697;28;20224;-80
2022/12/08 18:33:08;;;;;;;11.80;7.50;;;;;;;-145.68;100.00;63218.00;10390767;28;20192;-80
2022/12/08 18:38:09;;;;;;;10.70;6.50;;;;;;;-145.68;100.00;63218.00;10375706;28;20241;-80
2022/12/08 18:43:09;;;;;;;7.13;4.57;;;;;;;-145.68;100.00;63218.00;10380139;28;20672;-81
2022/12/08 18:48:09;;;;;;;8.03;5.80;;;;;;;-145.68;100.00;63218.00;10408575;28;20235;-80
2022/12/08 18:53:10;;;;;;;26.13;19.90;;;;;;;-145.68;100.00;63218.00;10410420;28;20651;-80
2022/12/08 18:58:13;;;;;;;7.53;5.87;;;;;;;-145.68;100.00;63218.00;10402413;28;20212;-80
2022/12/08 19:03:13;;;;;;;4.70;4.00;;;;;;;-145.68;100.00;63218.00;10369517;28;20332;-80
2022/12/08 19:08:13;;;;;;;6.57;4.50;;;;;;;-145.68;100.00;63218.00;10369318;28;20263;-80
2022/12/08 19:13:14;;;;;;;7.07;4.37;;;;;;;-145.68;100.00;63218.00;10372625;28;20560;-80
2022/12/08 19:18:14;;;;;;;14.63;9.53;;;;;;;-145.68;100.00;63218.00;10357580;28;20193;-80
2022/12/08 19:23:15;;;;;;;5.73;4.47;;;;;;;-145.68;100.00;63218.00;10351930;28;20228;-80
2022/12/08 19:28:15;;;;;;;6.10;4.70;;;;;;;-145.68;100.00;63218.00;10431677;28;20239;-81
2022/12/08 19:33:16;;;;;;;9.57;6.47;;;;;;;-145.68;100.00;63218.00;10424547;28;20283;-81
2022/12/08 19:38:16;;;;;;;8.27;6.33;;;;;;;-145.68;100.00;63218.00;10444143;28;20210;-81
2022/12/08 19:48:39;;;;;;;5.70;4.07;;;;;;;-145.68;100.00;63218.00;10434722;28;20297;-78
2022/12/08 19:53:40;;;;;;;6.93;5.43;;;;;;;-145.68;100.00;63218.00;10449489;28;20198;-79
2022/12/08 19:58:41;;;;;;;5.87;4.47;;;;;;;-145.68;100.00;63218.00;10449455;28;20408;-80
2022/12/08 20:03:41;;;;;;;6.03;4.73;;;;;;;-145.68;100.00;63218.00;10432286;28;20711;-80
2022/12/08 20:08:41;;;;;;;6.00;4.03;;;;;;;-145.68;100.00;63218.00;10423580;28;20359;-79
2022/12/08 20:13:46;;;;;;;6.93;4.97;;;;;;;-145.68;100.00;63218.00;10425679;28;20188;-80
2022/12/08 20:18:47;;;;;;;4.37;3.20;;;;;;;-145.68;100.00;63218.00;10430341;28;20191;-79
2022/12/08 20:23:48;;;;;;;5.47;3.50;;;;;;;-145.68;100.00;63218.00;10412815;28;20228;-80
2022/12/08 20:28:49;;;;;;;6.10;4.60;;;;;;;-145.68;100.00;63218.00;10410185;28;20324;-80
2022/12/08 20:33:50;;;;;;;5.57;4.20;;;;;;;-145.68;100.00;63218.00;10432434;28;20190;-79
2022/12/08 20:38:51;;;;;;;4.73;3.97;;;;;;;-145.68;100.00;63218.00;10452961;28;20257;-80
2022/12/08 20:43:52;;;;;;;5.63;3.73;;;;;;;-145.68;100.00;63218.00;10457207;28;20219;-80
2022/12/08 20:48:54;;;;;;;8.40;4.40;;;;;;;-145.68;100.00;63218.00;10457610;28;20214;-80
2022/12/08 20:53:56;;;;;;;7.63;4.13;;;;;;;-145.68;100.00;63218.00;10457056;28;20192;-80
2022/12/08 20:58:57;;;;;;;6.50;4.43;;;;;;;-145.68;100.00;63218.00;10457081;28;20586;-80
2022/12/08 21:03:57;;;;;;;10.80;7.00;;;;;;;-145.68;100.00;63218.00;10456505;28;20245;-80
2022/12/08 21:08:57;;;;;;;5.37;4.13;;;;;;;-145.68;100.00;63218.00;10456272;28;20222;-80
2022/12/08 21:13:58;;;;;;;5.77;4.37;;;;;;;-145.68;100.00;63218.00;10444614;28;20233;-80
2022/12/08 21:18:58;;;;;;;6.47;4.50;;;;;;;-145.68;100.00;63218.00;10444939;28;20299;-80
2022/12/08 21:23:59;;;;;;;6.47;4.40;;;;;;;-145.68;100.00;63218.00;10456650;28;20239;-80
2022/12/08 21:29:00;;;;;;;7.20;4.60;;;;;;;-145.68;100.00;63218.00;10438643;28;20776;-81
2022/12/08 21:34:01;;;;;;;7.47;4.87;;;;;;;-145.68;100.00;63218.00;10438136;28;20256;-81
2022/12/08 21:39:09;;;;;;;6.60;4.10;;;;;;;-145.68;100.00;63218.00;10446984;28;20230;-81
2022/12/08 21:44:11;;;;;;;5.83;4.07;;;;;;;-145.68;100.00;63218.00;10416897;28;20200;-82
2022/12/08 21:49:12;;;;;;;5.17;4.00;;;;;;;-145.68;100.00;63218.00;10412709;28;20228;-79
2022/12/08 21:54:13;;;;;;;5.00;3.90;;;;;;;-145.68;100.00;63218.00;10397199;28;20540;-80
2022/12/08 21:59:14;;;;;;;5.97;5.00;;;;;;;-145.68;100.00;63218.00;10415534;28;20619;-81
2022/12/08 22:04:16;;;;;;;7.50;5.13;;;;;;;-145.68;100.00;63218.00;10397635;28;20191;-81
2022/12/08 22:09:16;;;;;;;6.87;4.30;;;;;;;-145.68;100.00;63218.00;10414630;28;20254;-81
2022/12/08 22:14:17;;;;;;;6.07;4.40;;;;;;;-145.68;100.00;63218.00;10397106;28;20655;-81
2022/12/08 22:19:17;;;;;;;7.30;4.60;;;;;;;-145.68;100.00;63218.00;10414492;28;20270;-81
2022/12/08 22:24:18;;;;;;;8.27;5.07;;;;;;;-145.68;100.00;63218.00;10414714;28;20285;-80
2022/12/08 22:29:18;;;;;;;5.00;4.00;;;;;;;-145.68;100.00;63218.00;10414700;28;20572;-80
2022/12/08 22:34:18;;;;;;;6.10;4.00;;;;;;;-145.68;100.00;63218.00;10396934;28;20199;-81
2022/12/08 22:39:19;;;;;;;5.83;4.33;;;;;;;-145.68;100.00;63218.00;10422871;28;20225;-81
2022/12/08 22:44:19;;;;;;;5.77;4.03;;;;;;;-145.68;100.00;63218.00;10455246;28;20202;-81
2022/12/08 22:49:20;;;;;;;5.13;4.13;;;;;;;-145.68;100.00;63218.00;10455001;28;20188;-82
2022/12/08 22:54:20;;;;;;;6.37;4.60;;;;;;;-145.68;100.00;63218.00;10436928;28;20192;-81
2022/12/08 22:59:20;;;;;;;10.10;5.33;;;;;;;-145.68;100.00;63218.00;10454685;28;20652;-81
2022/12/08 23:04:21;;;;;;;9.47;5.17;;;;;;;-145.68;100.00;63218.00;10453929;28;20281;-81